createdAt,value
2017-10-21T00:00:36.354Z,88.19
2017-10-21T00:01:38.173Z,87.90
2017-10-21T00:02:40.001Z,88.29
2017-10-21T00:03:41.883Z,88.38
2017-10-21T00:04:43.773Z,88.19
2017-10-21T00:05:45.664Z,88.48
2017-10-21T00:06:59.813Z,88.38
2017-10-21T00:08:01.706Z,88.29
2017-10-21T00:09:03.588Z,89.24
2017-10-21T00:10:05.473Z,88.86
2017-10-21T00:11:07.304Z,88.95
2017-10-21T00:12:09.122Z,88.53
2017-10-21T00:13:11.007Z,88.95
2017-10-21T00:14:12.896Z,88.95
2017-10-21T00:15:14.783Z,88.57
2017-10-21T00:16:28.948Z,88.81
2017-10-21T00:17:30.831Z,88.43
2017-10-21T00:18:32.719Z,88.91
2017-10-21T00:19:34.602Z,89.01
2017-10-21T00:20:36.422Z,89.10
2017-10-21T00:21:38.249Z,89.48
2017-10-21T00:22:40.124Z,89.67
2017-10-21T00:23:42.011Z,90.06
2017-10-21T00:24:43.895Z,90.63
2017-10-21T00:25:58.049Z,90.49
2017-10-21T00:26:59.935Z,90.49
2017-10-21T00:28:01.819Z,90.97
2017-10-21T00:29:03.702Z,90.73
2017-10-21T00:30:05.520Z,91.02
2017-10-21T00:31:07.338Z,90.78
2017-10-21T00:32:09.225Z,91.16
2017-10-21T00:33:11.114Z,91.35
2017-10-21T00:34:12.997Z,91.16
2017-10-21T00:35:27.149Z,91.35
2017-10-21T00:36:29.034Z,91.64
2017-10-21T00:37:30.919Z,91.54
2017-10-21T00:38:32.808Z,91.74
2017-10-21T00:39:34.623Z,91.74
2017-10-21T00:40:36.441Z,91.74
2017-10-21T00:41:38.328Z,91.35
2017-10-21T00:42:40.216Z,91.35
2017-10-21T00:43:42.095Z,90.97
2017-10-21T00:44:56.247Z,91.06
2017-10-21T00:45:58.136Z,91.35
2017-10-21T00:47:00.020Z,90.88
2017-10-21T00:48:01.904Z,90.68
2017-10-21T00:49:03.723Z,90.68
2017-10-21T00:50:05.545Z,90.78
2017-10-21T00:51:07.425Z,90.59
2017-10-21T00:52:09.311Z,90.68
2017-10-21T00:53:11.201Z,91.06
2017-10-21T00:54:25.345Z,90.39
2017-10-21T00:55:27.228Z,90.59
2017-10-21T00:56:29.122Z,90.39
2017-10-21T00:57:31.008Z,90.39
2017-10-21T00:58:32.825Z,90.11
2017-10-21T00:59:34.640Z,90.11
2017-10-21T01:00:36.537Z,89.87
2017-10-21T01:01:38.430Z,89.78
2017-10-21T01:02:40.317Z,89.87
2017-10-21T01:03:54.469Z,89.78
2017-10-21T01:04:56.359Z,90.16
2017-10-21T01:05:58.240Z,89.97
2017-10-21T01:07:00.125Z,90.54
2017-10-21T01:08:01.940Z,90.45
2017-10-21T01:09:03.756Z,90.54
2017-10-21T01:10:05.644Z,90.35
2017-10-21T01:11:07.530Z,91.02
2017-10-21T01:12:09.414Z,91.11
2017-10-21T01:13:23.566Z,90.73
2017-10-21T01:14:25.449Z,91.02
2017-10-21T01:15:27.334Z,90.64
2017-10-21T01:16:29.217Z,91.11
2017-10-21T01:17:31.044Z,90.64
2017-10-21T01:18:32.853Z,90.64
2017-10-21T01:19:34.738Z,90.73
2017-10-21T01:20:36.625Z,90.40
2017-10-21T01:21:38.509Z,91.16
2017-10-21T01:22:52.662Z,91.21
2017-10-21T01:23:54.545Z,91.30
2017-10-21T01:24:56.428Z,91.21
2017-10-21T01:25:58.310Z,90.50
2017-10-21T01:27:00.132Z,90.83
2017-10-21T01:28:01.953Z,90.69
2017-10-21T01:29:03.837Z,90.88
2017-10-21T01:30:05.730Z,90.88
2017-10-21T01:31:07.606Z,90.97
2017-10-21T01:32:21.759Z,91.07
2017-10-21T01:33:23.640Z,90.69
2017-10-21T01:34:25.531Z,90.88
2017-10-21T01:35:27.416Z,90.78
2017-10-21T01:36:29.240Z,90.59
2017-10-21T01:37:31.052Z,90.69
2017-10-21T01:38:32.933Z,90.31
2017-10-21T01:39:34.818Z,90.50
2017-10-21T01:40:36.701Z,90.02
2017-10-21T01:41:50.905Z,90.02
2017-10-21T01:42:52.790Z,90.31
2017-10-21T01:43:54.669Z,90.02
2017-10-21T01:44:56.551Z,89.92
2017-10-21T01:45:58.373Z,89.83
2017-10-21T01:47:00.190Z,90.11
2017-10-21T01:48:02.072Z,90.02
2017-10-21T01:49:03.957Z,90.02
2017-10-21T01:50:05.837Z,89.83
2017-10-21T01:51:19.990Z,89.73
2017-10-21T01:52:21.870Z,89.92
2017-10-21T01:53:23.753Z,90.59
2017-10-21T01:54:25.637Z,90.40
2017-10-21T01:55:27.459Z,90.97
2017-10-21T01:56:29.277Z,91.16
2017-10-21T01:57:31.160Z,91.26
2017-10-21T01:58:33.046Z,91.16
2017-10-21T01:59:34.931Z,91.16
2017-10-21T02:00:49.087Z,90.88
2017-10-21T02:01:50.963Z,90.45
2017-10-21T02:02:52.850Z,89.88
2017-10-21T02:03:54.726Z,90.07
2017-10-21T02:04:56.546Z,89.97
2017-10-21T02:05:58.363Z,90.07
2017-10-21T02:07:00.206Z,89.40
2017-10-21T02:08:02.026Z,89.40
2017-10-21T02:09:03.844Z,89.78
2017-10-21T02:10:18.037Z,89.69
2017-10-21T02:11:19.915Z,89.31
2017-10-21T02:12:21.806Z,89.78
2017-10-21T02:13:23.685Z,89.50
2017-10-21T02:14:25.505Z,89.40
2017-10-21T02:15:27.324Z,89.02
2017-10-21T02:16:29.205Z,89.21
2017-10-21T02:17:31.086Z,89.12
2017-10-21T02:18:32.968Z,89.12
2017-10-21T02:19:47.120Z,89.02
2017-10-21T02:20:49.001Z,89.12
2017-10-21T02:21:50.883Z,88.92
2017-10-21T02:22:52.762Z,88.78
2017-10-21T02:23:54.583Z,89.12
2017-10-21T02:24:56.412Z,88.92
2017-10-21T02:25:58.291Z,89.31
2017-10-21T02:27:00.181Z,89.40
2017-10-21T02:28:02.058Z,89.12
2017-10-21T02:29:16.210Z,89.21
2017-10-21T02:30:18.089Z,89.12
2017-10-21T02:31:19.969Z,89.12
2017-10-21T02:32:21.847Z,89.17
2017-10-21T02:33:23.665Z,88.88
2017-10-21T02:34:25.482Z,89.21
2017-10-21T02:35:27.362Z,89.21
2017-10-21T02:36:29.246Z,89.40
2017-10-21T02:37:31.126Z,89.50
2017-10-21T02:38:45.264Z,89.78
2017-10-21T02:39:47.079Z,90.07
2017-10-21T02:40:48.896Z,90.07
2017-10-21T02:41:50.711Z,90.17
2017-10-21T02:42:52.598Z,89.59
2017-10-21T02:43:54.479Z,89.40
2017-10-21T02:44:56.371Z,88.92
2017-10-21T02:45:58.183Z,89.21
2017-10-21T02:47:00.010Z,89.31
2017-10-21T02:48:14.216Z,89.31
2017-10-21T02:49:16.096Z,89.40
2017-10-21T02:50:17.977Z,89.12
2017-10-21T02:51:19.855Z,88.92
2017-10-21T02:52:21.678Z,89.21
2017-10-21T02:53:23.496Z,89.02
2017-10-21T02:54:25.377Z,89.07
2017-10-21T02:55:27.258Z,89.07
2017-10-21T02:56:29.147Z,88.98
2017-10-21T02:57:43.294Z,89.12
2017-10-21T02:58:45.172Z,88.88
2017-10-21T02:59:47.052Z,88.50
2017-10-21T03:00:48.939Z,88.88
2017-10-21T03:01:50.754Z,88.98
2017-10-21T03:02:52.572Z,88.88
2017-10-21T03:03:54.455Z,89.17
2017-10-21T03:04:56.336Z,89.26
2017-10-21T03:05:58.220Z,89.17
2017-10-21T03:07:12.395Z,89.26
2017-10-21T03:08:14.264Z,89.07
2017-10-21T03:09:16.147Z,88.88
2017-10-21T03:10:18.029Z,89.54
2017-10-21T03:11:19.862Z,89.26
2017-10-21T03:12:21.669Z,89.36
2017-10-21T03:13:23.550Z,88.88
2017-10-21T03:14:25.433Z,89.07
2017-10-21T03:15:27.316Z,89.07
2017-10-21T03:16:41.467Z,89.40
2017-10-21T03:17:43.352Z,89.21
2017-10-21T03:18:45.229Z,89.50
2017-10-21T03:19:47.124Z,89.45
2017-10-21T03:20:48.949Z,88.98
2017-10-21T03:21:50.766Z,89.17
2017-10-21T03:22:52.645Z,89.07
2017-10-21T03:23:54.529Z,89.26
2017-10-21T03:24:56.410Z,89.07
2017-10-21T03:26:10.583Z,89.17
2017-10-21T03:27:12.465Z,88.78
2017-10-21T03:28:14.343Z,89.36
2017-10-21T03:29:16.220Z,88.88
2017-10-21T03:30:18.041Z,88.78
2017-10-21T03:31:19.861Z,88.88
2017-10-21T03:32:21.743Z,88.69
2017-10-21T03:33:23.627Z,89.26
2017-10-21T03:34:25.510Z,89.17
2017-10-21T03:35:39.662Z,89.07
2017-10-21T03:36:41.540Z,88.88
2017-10-21T03:37:43.424Z,88.88
2017-10-21T03:38:45.301Z,89.12
2017-10-21T03:39:47.126Z,88.78
2017-10-21T03:40:48.942Z,89.36
2017-10-21T03:41:50.823Z,88.59
2017-10-21T03:42:52.705Z,89.36
2017-10-21T03:43:54.587Z,89.07
2017-10-21T03:45:08.741Z,89.26
2017-10-21T03:46:10.621Z,89.26
2017-10-21T03:47:12.502Z,89.26
2017-10-21T03:48:14.382Z,89.17
2017-10-21T03:49:16.201Z,89.17
2017-10-21T03:50:18.018Z,89.36
2017-10-21T03:51:19.898Z,88.98
2017-10-21T03:52:21.784Z,89.26
2017-10-21T03:53:23.667Z,89.17
2017-10-21T03:54:37.870Z,88.88
2017-10-21T03:55:39.750Z,89.40
2017-10-21T03:56:41.640Z,88.98
2017-10-21T03:57:43.521Z,89.17
2017-10-21T03:58:45.339Z,89.21
2017-10-21T03:59:47.156Z,89.17
2017-10-21T04:00:49.036Z,89.07
2017-10-21T04:01:50.920Z,89.40
2017-10-21T04:02:52.801Z,88.83
2017-10-21T04:04:06.952Z,89.12
2017-10-21T04:05:08.832Z,89.02
2017-10-21T04:06:10.715Z,88.73
2017-10-21T04:07:12.595Z,88.64
2017-10-21T04:08:14.418Z,88.83
2017-10-21T04:09:16.231Z,88.83
2017-10-21T04:10:18.111Z,88.73
2017-10-21T04:11:19.994Z,88.83
2017-10-21T04:12:21.876Z,88.45
2017-10-21T04:13:36.028Z,88.54
2017-10-21T04:14:37.910Z,88.83
2017-10-21T04:15:39.792Z,88.83
2017-10-21T04:16:41.672Z,89.12
2017-10-21T04:17:43.491Z,88.92
2017-10-21T04:18:45.310Z,88.16
2017-10-21T04:19:47.193Z,88.26
2017-10-21T04:20:49.074Z,88.54
2017-10-21T04:21:50.958Z,88.35
2017-10-21T04:23:05.108Z,88.26
2017-10-21T04:24:06.989Z,88.26
2017-10-21T04:25:08.870Z,87.68
2017-10-21T04:26:10.749Z,87.78
2017-10-21T04:27:12.569Z,88.35
2017-10-21T04:28:14.390Z,87.87
2017-10-21T04:29:16.272Z,87.97
2017-10-21T04:30:18.155Z,88.07
2017-10-21T04:31:20.042Z,87.59
2017-10-21T04:32:34.213Z,87.97
2017-10-21T04:33:36.092Z,87.87
2017-10-21T04:34:37.977Z,87.87
2017-10-21T04:35:39.857Z,87.59
2017-10-21T04:36:41.677Z,87.97
2017-10-21T04:37:43.495Z,88.07
2017-10-21T04:38:45.388Z,87.78
2017-10-21T04:39:47.269Z,88.16
2017-10-21T04:40:49.149Z,88.83
2017-10-21T04:42:03.304Z,88.73
2017-10-21T04:43:05.184Z,88.54
2017-10-21T04:44:07.068Z,88.73
2017-10-21T04:45:08.944Z,88.92
2017-10-21T04:46:10.776Z,88.83
2017-10-21T04:47:12.591Z,88.54
2017-10-21T04:48:14.431Z,88.73
2017-10-21T04:49:16.250Z,88.54
2017-10-21T04:50:18.092Z,88.35
2017-10-21T04:51:32.249Z,88.73
2017-10-21T04:52:34.129Z,88.83
2017-10-21T04:53:36.010Z,88.59
2017-10-21T04:54:37.888Z,88.87
2017-10-21T04:55:39.708Z,88.78
2017-10-21T04:56:41.527Z,88.78
2017-10-21T04:57:43.408Z,88.68
2017-10-21T04:58:45.292Z,88.68
2017-10-21T04:59:47.175Z,88.30
2017-10-21T05:01:01.328Z,88.87
2017-10-21T05:02:03.208Z,88.87
2017-10-21T05:03:05.087Z,89.06
2017-10-21T05:04:06.968Z,88.20
2017-10-21T05:05:08.790Z,88.40
2017-10-21T05:06:10.606Z,88.20
2017-10-21T05:07:12.498Z,87.73
2017-10-21T05:08:14.381Z,88.20
2017-10-21T05:09:16.268Z,88.01
2017-10-21T05:10:30.418Z,88.01
2017-10-21T05:11:32.296Z,88.01
2017-10-21T05:12:34.188Z,87.54
2017-10-21T05:13:36.077Z,87.25
2017-10-21T05:14:37.889Z,87.25
2017-10-21T05:15:39.706Z,87.15
2017-10-21T05:16:41.586Z,87.15
2017-10-21T05:17:43.469Z,87.44
2017-10-21T05:18:45.354Z,87.35
2017-10-21T05:19:59.508Z,86.96
2017-10-21T05:21:01.388Z,86.77
2017-10-21T05:22:03.273Z,86.49
2017-10-21T05:23:05.154Z,86.82
2017-10-21T05:24:06.976Z,86.87
2017-10-21T05:25:08.797Z,86.87
2017-10-21T05:26:10.680Z,86.68
2017-10-21T05:27:12.566Z,86.01
2017-10-21T05:28:14.451Z,86.63
2017-10-21T05:29:28.603Z,86.01
2017-10-21T05:30:30.491Z,86.15
2017-10-21T05:31:32.367Z,86.15
2017-10-21T05:32:34.250Z,86.20
2017-10-21T05:33:36.078Z,86.30
2017-10-21T05:34:37.907Z,85.91
2017-10-21T05:35:39.741Z,86.30
2017-10-21T05:36:41.592Z,86.30
2017-10-21T05:37:43.414Z,86.30
2017-10-21T05:38:57.569Z,86.30
2017-10-21T05:39:59.449Z,85.82
2017-10-21T05:41:01.331Z,85.77
2017-10-21T05:42:03.225Z,85.63
2017-10-21T05:43:05.045Z,85.67
2017-10-21T05:44:06.866Z,85.58
2017-10-21T05:45:08.754Z,85.82
2017-10-21T05:46:10.642Z,85.82
2017-10-21T05:47:12.525Z,85.58
2017-10-21T05:48:26.699Z,85.48
2017-10-21T05:49:28.578Z,85.29
2017-10-21T05:50:30.464Z,85.63
2017-10-21T05:51:32.347Z,85.44
2017-10-21T05:52:34.180Z,85.67
2017-10-21T05:53:36.000Z,85.63
2017-10-21T05:54:37.884Z,85.86
2017-10-21T05:55:39.772Z,85.48
2017-10-21T05:56:41.656Z,85.82
2017-10-21T05:57:55.862Z,86.24
2017-10-21T05:58:57.747Z,85.67
2017-10-21T05:59:59.628Z,85.67
2017-10-21T06:01:01.513Z,85.48
2017-10-21T06:02:03.337Z,85.38
2017-10-21T06:03:05.158Z,84.81
2017-10-21T06:04:07.044Z,84.86
2017-10-21T06:05:08.932Z,84.86
2017-10-21T06:06:10.823Z,84.96
2017-10-21T06:07:24.970Z,86.10
2017-10-21T06:08:26.854Z,86.01
2017-10-21T06:09:28.742Z,86.01
2017-10-21T06:10:30.624Z,86.20
2017-10-21T06:11:32.448Z,86.58
2017-10-21T06:12:34.279Z,85.82
2017-10-21T06:13:36.155Z,85.58
2017-10-21T06:14:38.042Z,85.77
2017-10-21T06:15:39.927Z,85.48
2017-10-21T06:16:54.084Z,85.48
2017-10-21T06:17:55.968Z,85.10
2017-10-21T06:18:57.854Z,84.96
2017-10-21T06:19:59.750Z,84.86
2017-10-21T06:21:01.573Z,84.77
2017-10-21T06:22:03.396Z,85.44
2017-10-21T06:23:05.291Z,85.25
2017-10-21T06:24:07.178Z,84.67
2017-10-21T06:25:09.065Z,84.96
2017-10-21T06:26:23.236Z,84.86
2017-10-21T06:27:25.119Z,85.05
2017-10-21T06:28:27.003Z,85.53
2017-10-21T06:29:28.887Z,84.86
2017-10-21T06:30:30.710Z,85.05
2017-10-21T06:31:32.537Z,85.53
2017-10-21T06:32:34.422Z,85.44
2017-10-21T06:33:36.311Z,86.30
2017-10-21T06:34:38.208Z,86.01
2017-10-21T06:35:52.386Z,86.20
2017-10-21T06:36:54.261Z,86.39
2017-10-21T06:37:56.145Z,86.49
2017-10-21T06:38:58.030Z,85.91
2017-10-21T06:39:59.854Z,85.72
2017-10-21T06:41:01.676Z,85.25
2017-10-21T06:42:03.560Z,85.53
2017-10-21T06:43:05.458Z,85.05
2017-10-21T06:44:07.344Z,85.05
2017-10-21T06:45:21.519Z,85.15
2017-10-21T06:46:23.405Z,84.91
2017-10-21T06:47:25.291Z,85.05
2017-10-21T06:48:27.176Z,85.00
2017-10-21T06:49:29.001Z,85.19
2017-10-21T06:50:30.828Z,84.48
2017-10-21T06:51:32.713Z,84.62
2017-10-21T06:52:34.601Z,84.48
2017-10-21T06:53:36.487Z,84.43
2017-10-21T06:54:50.645Z,84.72
2017-10-21T06:55:52.530Z,84.72
2017-10-21T06:56:54.414Z,84.62
2017-10-21T06:57:56.300Z,84.62
2017-10-21T06:58:58.123Z,84.23
2017-10-21T06:59:59.947Z,84.72
2017-10-21T07:01:01.833Z,84.96
2017-10-21T07:02:03.722Z,84.91
2017-10-21T07:03:05.612Z,84.52
2017-10-21T07:04:19.765Z,84.62
2017-10-21T07:05:21.649Z,84.52
2017-10-21T07:06:23.536Z,84.52
2017-10-21T07:07:25.419Z,84.62
2017-10-21T07:08:27.242Z,84.62
2017-10-21T07:09:29.066Z,84.23
2017-10-21T07:10:30.950Z,84.33
2017-10-21T07:11:32.841Z,84.43
2017-10-21T07:12:34.728Z,84.23
2017-10-21T07:13:48.889Z,84.33
2017-10-21T07:14:50.782Z,84.62
2017-10-21T07:15:52.659Z,83.95
2017-10-21T07:16:54.545Z,84.05
2017-10-21T07:17:56.367Z,83.28
2017-10-21T07:18:58.188Z,83.57
2017-10-21T07:20:00.013Z,83.51
2017-10-21T07:21:01.837Z,83.76
2017-10-21T07:22:03.659Z,83.51
2017-10-21T07:23:17.815Z,83.42
2017-10-21T07:24:19.726Z,83.61
2017-10-21T07:25:21.610Z,83.70
2017-10-21T07:26:23.494Z,83.61
2017-10-21T07:27:25.319Z,83.70
2017-10-21T07:28:27.142Z,83.61
2017-10-21T07:29:29.029Z,83.42
2017-10-21T07:30:30.915Z,83.51
2017-10-21T07:31:32.801Z,83.51
2017-10-21T07:32:49.967Z,83.80
2017-10-21T07:33:51.851Z,83.70
2017-10-21T07:34:53.734Z,83.90
2017-10-21T07:35:55.617Z,83.70
2017-10-21T07:36:57.443Z,83.61
2017-10-21T07:37:59.268Z,83.90
2017-10-21T07:39:01.154Z,83.13
2017-10-21T07:40:03.048Z,83.13
2017-10-21T07:41:04.940Z,83.13
2017-10-21T07:42:19.092Z,83.04
2017-10-21T07:43:20.980Z,82.94
2017-10-21T07:44:22.866Z,83.23
2017-10-21T07:45:24.754Z,83.33
2017-10-21T07:46:26.590Z,83.04
2017-10-21T07:47:28.415Z,82.65
2017-10-21T07:48:30.306Z,83.04
2017-10-21T07:49:32.195Z,82.75
2017-10-21T07:50:34.085Z,83.13
2017-10-21T07:51:48.246Z,83.13
2017-10-21T07:52:50.132Z,83.13
2017-10-21T07:53:52.019Z,83.13
2017-10-21T07:54:53.910Z,83.13
2017-10-21T07:55:55.741Z,83.33
2017-10-21T07:56:57.563Z,83.90
2017-10-21T07:57:59.452Z,83.13
2017-10-21T07:59:01.340Z,83.13
2017-10-21T08:00:03.232Z,82.89
2017-10-21T08:01:17.392Z,82.79
2017-10-21T08:02:19.278Z,82.60
2017-10-21T08:03:21.165Z,82.89
2017-10-21T08:04:23.054Z,83.27
2017-10-21T08:05:24.879Z,82.79
2017-10-21T08:06:26.709Z,82.51
2017-10-21T08:07:28.602Z,82.22
2017-10-21T08:08:30.494Z,82.07
2017-10-21T08:09:32.383Z,81.68
2017-10-21T08:10:46.542Z,81.30
2017-10-21T08:11:48.430Z,80.73
2017-10-21T08:12:50.318Z,80.82
2017-10-21T08:13:52.205Z,80.63
2017-10-21T08:14:54.046Z,80.06
2017-10-21T08:15:55.871Z,79.68
2017-10-21T08:16:57.757Z,79.33
2017-10-21T08:17:59.656Z,79.24
2017-10-21T08:19:01.536Z,78.86
2017-10-21T08:20:15.697Z,78.57
2017-10-21T08:21:17.579Z,78.28
2017-10-21T08:22:19.477Z,78.09
2017-10-21T08:23:21.367Z,78.09
2017-10-21T08:24:23.202Z,77.70
2017-10-21T08:25:25.021Z,77.61
2017-10-21T08:26:26.911Z,77.42
2017-10-21T08:27:28.800Z,77.23
2017-10-21T08:28:30.691Z,77.51
2017-10-21T08:29:44.856Z,77.42
2017-10-21T08:30:46.739Z,76.56
2017-10-21T08:31:48.631Z,76.75
2017-10-21T08:32:50.526Z,76.46
2017-10-21T08:33:52.349Z,76.79
2017-10-21T08:34:54.184Z,76.56
2017-10-21T08:35:56.066Z,76.98
2017-10-21T08:36:57.957Z,76.60
2017-10-21T08:37:59.846Z,76.60
2017-10-21T08:39:14.317Z,76.12
2017-10-21T08:40:16.221Z,75.64
2017-10-21T08:41:18.111Z,75.73
2017-10-21T08:42:20.002Z,75.83
2017-10-21T08:43:21.833Z,75.83
2017-10-21T08:44:23.657Z,75.35
2017-10-21T08:45:25.544Z,75.64
2017-10-21T08:46:27.433Z,75.07
2017-10-21T08:47:29.326Z,75.16
2017-10-21T08:48:43.487Z,74.72
2017-10-21T08:49:45.390Z,74.72
2017-10-21T08:50:47.288Z,74.91
2017-10-21T08:51:49.238Z,74.72
2017-10-21T08:52:51.173Z,74.43
2017-10-21T08:53:53.023Z,74.24
2017-10-21T08:54:54.905Z,74.33
2017-10-21T08:55:56.798Z,74.43
2017-10-21T08:56:58.697Z,74.62
2017-10-21T08:58:12.867Z,74.05
2017-10-21T08:59:14.756Z,74.62
2017-10-21T09:00:16.643Z,74.43
2017-10-21T09:01:18.531Z,74.52
2017-10-21T09:02:20.363Z,74.24
2017-10-21T09:03:22.203Z,74.52
2017-10-21T09:04:24.083Z,74.82
2017-10-21T09:05:25.987Z,74.43
2017-10-21T09:06:27.898Z,74.43
2017-10-21T09:07:42.110Z,75.01
2017-10-21T09:08:44.008Z,74.43
2017-10-21T09:09:45.893Z,74.43
2017-10-21T09:10:47.785Z,74.62
2017-10-21T09:11:50.124Z,74.72
2017-10-21T09:12:51.925Z,74.52
2017-10-21T09:13:54.120Z,74.15
2017-10-21T09:14:55.976Z,73.95
2017-10-21T09:15:57.877Z,74.24
2017-10-21T09:17:12.035Z,74.05
2017-10-21T09:18:13.925Z,74.43
2017-10-21T09:19:15.814Z,74.62
2017-10-21T09:20:17.706Z,74.40
2017-10-21T09:21:19.533Z,74.91
2017-10-21T09:22:21.359Z,74.72
2017-10-21T09:23:23.253Z,74.72
2017-10-21T09:24:25.145Z,74.91
2017-10-21T09:25:27.037Z,74.72
2017-10-21T09:26:41.524Z,75.29
2017-10-21T09:27:43.438Z,75.20
2017-10-21T09:28:45.344Z,75.39
2017-10-21T09:29:47.217Z,75.10
2017-10-21T09:30:49.044Z,75.29
2017-10-21T09:31:50.900Z,75.39
2017-10-21T09:32:52.791Z,74.72
2017-10-21T09:33:54.721Z,74.91
2017-10-21T09:34:56.614Z,75.01
2017-10-21T09:36:10.786Z,74.24
2017-10-21T09:37:12.675Z,74.33
2017-10-21T09:38:14.572Z,73.70
2017-10-21T09:39:16.453Z,74.08
2017-10-21T09:40:18.278Z,73.32
2017-10-21T09:41:20.109Z,72.84
2017-10-21T09:42:21.999Z,72.55
2017-10-21T09:43:23.889Z,72.55
2017-10-21T09:44:25.783Z,72.55
2017-10-21T09:45:39.943Z,72.07
2017-10-21T09:46:41.831Z,72.07
2017-10-21T09:47:43.733Z,71.78
2017-10-21T09:48:45.646Z,71.82
2017-10-21T09:49:47.470Z,71.44
2017-10-21T09:50:49.296Z,71.63
2017-10-21T09:51:51.184Z,71.82
2017-10-21T09:52:53.077Z,71.05
2017-10-21T09:53:54.968Z,71.15
2017-10-21T09:55:09.130Z,70.09
2017-10-21T09:56:11.021Z,69.81
2017-10-21T09:57:12.906Z,70.06
2017-10-21T09:58:14.796Z,69.33
2017-10-21T09:59:16.624Z,69.52
2017-10-21T10:00:18.452Z,69.23
2017-10-21T10:01:20.337Z,69.42
2017-10-21T10:02:22.233Z,69.04
2017-10-21T10:03:24.136Z,68.75
2017-10-21T10:04:38.277Z,68.95
2017-10-21T10:05:40.164Z,68.95
2017-10-21T10:06:42.056Z,68.85
2017-10-21T10:07:43.951Z,68.75
2017-10-21T10:08:45.781Z,68.43
2017-10-21T10:09:47.606Z,68.14
2017-10-21T10:10:49.497Z,68.05
2017-10-21T10:11:51.386Z,68.33
2017-10-21T10:12:53.276Z,68.14
2017-10-21T10:14:07.485Z,67.85
2017-10-21T10:15:09.386Z,68.05
2017-10-21T10:16:11.264Z,68.05
2017-10-21T10:17:13.155Z,67.66
2017-10-21T10:18:14.982Z,67.18
2017-10-21T10:19:16.808Z,67.09
2017-10-21T10:20:18.695Z,67.76
2017-10-21T10:21:20.900Z,67.85
2017-10-21T10:22:22.754Z,68.72
2017-10-21T10:23:36.922Z,69.20
2017-10-21T10:24:38.810Z,69.20
2017-10-21T10:25:40.710Z,69.29
2017-10-21T10:26:42.597Z,69.29
2017-10-21T10:27:44.441Z,69.58
2017-10-21T10:28:46.274Z,70.06
2017-10-21T10:29:48.155Z,69.68
2017-10-21T10:30:50.049Z,69.68
2017-10-21T10:31:51.942Z,69.87
2017-10-21T10:33:06.108Z,70.15
2017-10-21T10:34:07.999Z,70.15
2017-10-21T10:35:09.891Z,70.06
2017-10-21T10:36:11.781Z,70.15
2017-10-21T10:37:13.619Z,70.64
2017-10-21T10:38:15.446Z,70.25
2017-10-21T10:39:17.332Z,70.15
2017-10-21T10:40:19.224Z,70.06
2017-10-21T10:41:21.116Z,70.44
2017-10-21T10:42:35.279Z,70.44
2017-10-21T10:43:37.166Z,70.44
2017-10-21T10:44:39.071Z,70.35
2017-10-21T10:45:40.952Z,70.64
2017-10-21T10:46:42.770Z,70.44
2017-10-21T10:47:44.596Z,70.64
2017-10-21T10:48:46.482Z,70.44
2017-10-21T10:49:48.374Z,70.73
2017-10-21T10:50:50.265Z,70.73
2017-10-21T10:52:04.437Z,70.73
2017-10-21T10:53:06.327Z,70.25
2017-10-21T10:54:08.216Z,70.64
2017-10-21T10:55:10.101Z,70.15
2017-10-21T10:56:11.933Z,70.15
2017-10-21T10:57:13.757Z,70.15
2017-10-21T10:58:15.644Z,70.15
2017-10-21T10:59:17.539Z,70.15
2017-10-21T11:00:19.431Z,69.96
2017-10-21T11:01:33.597Z,70.35
2017-10-21T11:02:35.485Z,70.15
2017-10-21T11:03:37.373Z,69.77
2017-10-21T11:04:39.261Z,69.58
2017-10-21T11:05:41.092Z,69.58
2017-10-21T11:06:42.918Z,69.62
2017-10-21T11:07:44.807Z,69.68
2017-10-21T11:08:46.699Z,69.48
2017-10-21T11:09:48.590Z,69.58
2017-10-21T11:11:02.748Z,69.68
2017-10-21T11:12:04.637Z,69.77
2017-10-21T11:13:06.523Z,69.68
2017-10-21T11:14:08.413Z,69.68
2017-10-21T11:15:10.242Z,69.68
2017-10-21T11:16:12.109Z,69.77
2017-10-21T11:17:13.932Z,69.77
2017-10-21T11:18:15.826Z,69.48
2017-10-21T11:19:17.714Z,69.58
2017-10-21T11:20:31.878Z,69.87
2017-10-21T11:21:33.765Z,70.25
2017-10-21T11:22:35.664Z,70.44
2017-10-21T11:23:37.555Z,70.64
2017-10-21T11:24:39.383Z,70.64
2017-10-21T11:25:41.219Z,70.15
2017-10-21T11:26:43.104Z,70.15
2017-10-21T11:27:44.996Z,69.77
2017-10-21T11:28:46.887Z,69.71
2017-10-21T11:30:01.034Z,69.81
2017-10-21T11:31:02.861Z,69.90
2017-10-21T11:32:04.710Z,69.81
2017-10-21T11:33:06.603Z,69.71
2017-10-21T11:34:08.496Z,70.09
2017-10-21T11:35:10.359Z,69.42
2017-10-21T11:36:12.191Z,69.36
2017-10-21T11:37:14.019Z,69.26
2017-10-21T11:38:15.908Z,68.59
2017-10-21T11:39:30.134Z,68.21
2017-10-21T11:40:32.022Z,68.12
2017-10-21T11:41:33.914Z,67.63
2017-10-21T11:42:35.806Z,67.16
2017-10-21T11:43:37.639Z,67.63
2017-10-21T11:44:39.462Z,67.06
2017-10-21T11:45:41.355Z,67.35
2017-10-21T11:46:43.245Z,67.25
2017-10-21T11:47:45.134Z,67.06
2017-10-21T11:48:59.296Z,67.35
2017-10-21T11:50:01.219Z,67.25
2017-10-21T11:51:03.462Z,66.86
2017-10-21T11:52:05.369Z,67.44
2017-10-21T11:53:07.247Z,67.25
2017-10-21T11:54:09.097Z,67.63
2017-10-21T11:55:10.990Z,67.35
2017-10-21T11:56:13.292Z,67.63
2017-10-21T11:57:15.241Z,67.25
2017-10-21T11:58:29.422Z,67.35
2017-10-21T11:59:31.314Z,67.63
2017-10-21T12:00:33.229Z,67.06
2017-10-21T12:01:35.428Z,67.73
2017-10-21T12:02:37.223Z,67.25
2017-10-21T12:03:39.050Z,67.25
2017-10-21T12:04:40.939Z,67.25
2017-10-21T12:05:42.832Z,67.25
2017-10-21T12:06:45.043Z,67.16
2017-10-21T12:07:59.204Z,66.86
2017-10-21T12:09:01.091Z,67.35
2017-10-21T12:10:02.979Z,67.35
2017-10-21T12:11:04.869Z,67.35
2017-10-21T12:12:06.724Z,67.44
2017-10-21T12:13:08.551Z,67.63
2017-10-21T12:14:10.443Z,67.57
2017-10-21T12:15:12.334Z,67.44
2017-10-21T12:16:14.225Z,67.19
2017-10-21T12:17:28.386Z,67.29
2017-10-21T12:18:30.275Z,66.80
2017-10-21T12:19:32.166Z,67.09
2017-10-21T12:20:34.055Z,66.90
2017-10-21T12:21:35.883Z,66.61
2017-10-21T12:22:38.057Z,66.64
2017-10-21T12:23:39.912Z,66.84
2017-10-21T12:24:41.814Z,66.36
2017-10-21T12:25:43.700Z,66.36
2017-10-21T12:26:57.862Z,66.74
2017-10-21T12:27:59.751Z,66.16
2017-10-21T12:29:01.639Z,66.36
2017-10-21T12:30:03.546Z,66.26
2017-10-21T12:31:05.365Z,65.78
2017-10-21T12:32:07.203Z,65.49
2017-10-21T12:33:09.090Z,65.20
2017-10-21T12:34:10.995Z,65.01
2017-10-21T12:35:12.892Z,64.43
2017-10-21T12:36:27.057Z,64.47
2017-10-21T12:37:28.944Z,64.66
2017-10-21T12:38:30.834Z,64.09
2017-10-21T12:39:32.726Z,63.89
2017-10-21T12:40:34.555Z,63.70
2017-10-21T12:41:36.381Z,63.22
2017-10-21T12:42:38.288Z,63.02
2017-10-21T12:43:40.190Z,62.74
2017-10-21T12:44:42.150Z,62.74
2017-10-21T12:45:56.291Z,63.02
2017-10-21T12:46:58.181Z,62.84
2017-10-21T12:48:00.070Z,62.84
2017-10-21T12:49:01.982Z,62.64
2017-10-21T12:50:03.815Z,62.74
2017-10-21T12:51:05.640Z,62.84
2017-10-21T12:52:07.533Z,62.84
2017-10-21T12:53:09.496Z,63.02
2017-10-21T12:54:11.351Z,63.51
2017-10-21T12:55:25.514Z,63.96
2017-10-21T12:56:27.403Z,64.15
2017-10-21T12:57:29.293Z,64.15
2017-10-21T12:58:31.195Z,63.96
2017-10-21T12:59:33.020Z,64.05
2017-10-21T13:00:34.845Z,64.15
2017-10-21T13:01:36.735Z,64.15
2017-10-21T13:02:38.629Z,63.96
2017-10-21T13:03:40.519Z,64.15
2017-10-21T13:04:54.682Z,64.25
2017-10-21T13:05:56.572Z,63.96
2017-10-21T13:06:58.460Z,63.67
2017-10-21T13:08:00.351Z,63.57
2017-10-21T13:09:02.180Z,63.96
2017-10-21T13:10:04.007Z,64.05
2017-10-21T13:11:05.896Z,64.43
2017-10-21T13:12:07.794Z,63.57
2017-10-21T13:13:09.684Z,63.86
2017-10-21T13:14:23.890Z,63.67
2017-10-21T13:15:25.768Z,63.35
2017-10-21T13:16:27.658Z,63.96
2017-10-21T13:17:29.547Z,63.76
2017-10-21T13:18:31.379Z,63.67
2017-10-21T13:19:33.209Z,63.48
2017-10-21T13:20:35.098Z,63.28
2017-10-21T13:21:36.993Z,63.45
2017-10-21T13:22:38.911Z,63.86
2017-10-21T13:23:53.073Z,63.92
2017-10-21T13:24:54.961Z,64.15
2017-10-21T13:25:56.876Z,64.05
2017-10-21T13:26:58.744Z,63.96
2017-10-21T13:28:00.576Z,63.96
2017-10-21T13:29:02.416Z,64.05
2017-10-21T13:30:04.295Z,64.15
2017-10-21T13:31:06.186Z,64.05
2017-10-21T13:32:08.078Z,64.15
2017-10-21T13:33:22.247Z,63.86
2017-10-21T13:34:24.147Z,63.67